Time;durP1;ratioP1;P1;durP2;ratioP2;P2;SDS_P1;SDS_P2;PMS_P1;PMS_P2;Temp;Humidity;BMP_temperature;BMP_pressure;BME280_temperature;BME280_humidity;BME280_pressure;Samples;Min_cycle;Max_cycle;Signal;HPM_P1;HPM_P2
2021/08/24 00:02:11;;;;;;;5.47;3.00;;;14.30;99.90;;;;;;5030889;28;20532;-81
2021/08/24 00:04:37;;;;;;;4.80;2.40;;;14.20;99.90;;;;;;5029718;28;20388;-82
2021/08/24 00:07:02;;;;;;;6.88;2.60;;;14.30;99.90;;;;;;5031718;28;20373;-82
2021/08/24 00:09:28;;;;;;;6.03;2.50;;;14.20;99.90;;;;;;5031083;28;20453;-82
2021/08/24 00:11:54;;;;;;;3.80;2.40;;;14.20;99.90;;;;;;5029472;28;20382;-80
2021/08/24 00:14:19;;;;;;;4.97;2.50;;;14.20;99.90;;;;;;5013153;28;20402;-82
2021/08/24 00:16:45;;;;;;;5.40;2.70;;;14.10;99.90;;;;;;5030752;28;20381;-80
2021/08/24 00:19:11;;;;;;;4.50;2.55;;;14.10;99.90;;;;;;5030759;28;20384;-82
2021/08/24 00:21:38;;;;;;;4.25;2.53;;;14.00;99.90;;;;;;5031191;28;20864;-82
2021/08/24 00:24:05;;;;;;;6.13;3.03;;;14.00;99.90;;;;;;5029477;28;20864;-81
2021/08/24 00:26:31;;;;;;;6.10;2.38;;;13.90;99.90;;;;;;5030689;28;20413;-79
2021/08/24 00:28:57;;;;;;;5.47;2.40;;;13.90;99.90;;;;;;5030084;28;20392;-80
2021/08/24 00:31:22;;;;;;;4.57;2.20;;;13.90;99.90;;;;;;5030513;28;20366;-82
2021/08/24 00:33:48;;;;;;;4.57;2.40;;;13.80;99.90;;;;;;5030745;28;20405;-80
2021/08/24 00:36:15;;;;;;;4.15;2.40;;;13.80;99.90;;;;;;5030521;28;20456;-82
2021/08/24 00:38:42;;;;;;;3.77;2.63;;;13.80;99.90;;;;;;5030559;28;20385;-80
2021/08/24 00:41:08;;;;;;;4.78;2.30;;;13.80;99.90;;;;;;5030141;28;20878;-80
2021/08/24 00:43:38;;;;;;;4.50;2.60;;;13.70;99.90;;;;;;5030468;28;20388;-81
2021/08/24 00:46:22;;;;;;;5.63;2.80;;;13.60;99.90;;;;;;5030396;28;20914;-80
2021/08/24 00:48:48;;;;;;;5.60;2.63;;;13.60;99.90;;;;;;5030285;28;20957;-79
2021/08/24 00:51:17;;;;;;;4.78;2.60;;;13.60;99.90;;;;;;5012568;28;20377;-80
2021/08/24 00:53:43;;;;;;;4.13;2.65;;;13.50;99.90;;;;;;5012260;28;20413;-82
2021/08/24 00:56:10;;;;;;;3.92;2.50;;;13.50;99.90;;;;;;5030328;28;20870;-81
2021/08/24 00:58:37;;;;;;;4.25;2.55;;;13.50;99.90;;;;;;5029896;28;20762;-79
2021/08/24 01:01:03;;;;;;;6.25;2.85;;;13.50;99.90;;;;;;5029596;28;20415;-79
2021/08/24 01:03:36;;;;;;;4.88;2.70;;;13.50;99.90;;;;;;5011867;28;20402;-79
2021/08/24 01:06:11;;;;;;;4.65;2.50;;;13.50;99.90;;;;;;5029754;28;20430;-81
2021/08/24 01:09:03;;;;;;;6.93;2.90;;;13.40;99.90;;;;;;5028584;28;20377;-79
2021/08/24 01:11:28;;;;;;;6.13;2.95;;;13.40;99.90;;;;;;5030130;28;20436;-79
2021/08/24 01:14:40;;;;;;;6.28;2.67;;;13.40;99.90;;;;;;5029871;28;20452;-79
2021/08/24 01:17:17;;;;;;;4.55;2.97;;;13.30;99.90;;;;;;4949376;29;20420;-79
2021/08/24 01:19:46;;;;;;;4.85;2.80;;;13.30;99.90;;;;;;5025270;28;20390;-82
2021/08/24 01:22:42;;;;;;;4.60;2.20;;;13.30;99.90;;;;;;5029644;28;20388;-80
2021/08/24 01:25:55;;;;;;;6.50;2.85;;;13.20;99.90;;;;;;5030069;28;20365;-81
2021/08/24 01:28:25;;;;;;;4.95;2.65;;;13.30;99.90;;;;;;5028043;28;21074;-81
2021/08/24 01:31:27;;;;;;;4.53;2.85;;;13.30;99.90;;;;;;5029471;28;20593;-82
2021/08/24 01:34:31;;;;;;;4.28;2.47;;;13.20;99.90;;;;;;5029301;28;20499;-82
2021/08/24 01:36:59;;;;;;;6.85;2.85;;;13.20;99.90;;;;;;5029601;28;20464;-81
2021/08/24 01:39:31;;;;;;;4.65;2.40;;;13.10;99.90;;;;;;5029248;28;20767;-79
2021/08/24 01:42:13;;;;;;;5.97;2.83;;;13.10;99.90;;;;;;5028325;28;20381;-79
2021/08/24 01:44:52;;;;;;;5.22;2.70;;;13.00;99.90;;;;;;5029289;28;20489;-81
2021/08/24 01:47:40;;;;;;;6.07;2.67;;;13.00;99.90;;;;;;5029183;28;20898;-79
2021/08/24 01:50:38;;;;;;;7.78;3.20;;;13.00;99.90;;;;;;5011411;28;20374;-79
2021/08/24 01:53:13;;;;;;;5.53;2.90;;;13.10;99.90;;;;;;5025179;28;20382;-82
2021/08/24 01:55:47;;;;;;;6.65;3.10;;;13.00;99.90;;;;;;5011097;28;20393;-78
2021/08/24 01:58:31;;;;;;;5.13;2.80;;;13.00;99.90;;;;;;5029063;28;20374;-80
2021/08/24 02:01:01;;;;;;;7.55;3.00;;;12.90;99.90;;;;;;5029185;28;20404;-80
2021/08/24 02:03:32;;;;;;;5.45;2.85;;;12.80;99.90;;;;;;5028395;28;20401;-80
2021/08/24 02:06:02;;;;;;;6.00;3.00;;;12.90;99.90;;;;;;5029229;28;20440;-81
2021/08/24 02:08:32;;;;;;;5.90;2.58;;;12.90;99.90;;;;;;5028579;28;20464;-80
2021/08/24 02:11:01;;;;;;;5.28;2.65;;;12.90;99.90;;;;;;5028943;28;20420;-81
2021/08/24 02:13:36;;;;;;;4.70;2.65;;;12.80;99.90;;;;;;5028523;28;20377;-80
2021/08/24 02:16:05;;;;;;;5.20;2.63;;;12.80;99.90;;;;;;5028772;28;20377;-80
2021/08/24 02:18:38;;;;;;;4.93;2.80;;;12.90;99.90;;;;;;5028067;28;20411;-80
2021/08/24 02:21:22;;;;;;;6.40;2.88;;;12.90;99.90;;;;;;5010555;28;20717;-78
2021/08/24 02:23:50;;;;;;;4.17;2.80;;;12.90;99.90;;;;;;5027315;28;20382;-81
2021/08/24 02:26:18;;;;;;;6.00;2.70;;;12.90;99.90;;;;;;5028533;28;20378;-80
2021/08/24 02:28:49;;;;;;;6.95;3.40;;;12.80;99.90;;;;;;5027266;28;20392;-80
2021/08/24 02:31:43;;;;;;;5.10;2.80;;;12.70;99.90;;;;;;5010675;28;20457;-79
2021/08/24 02:34:23;;;;;;;5.97;3.00;;;12.70;99.90;;;;;;5026948;28;20767;-80
2021/08/24 02:37:34;;;;;;;4.22;2.50;;;12.70;99.90;;;;;;5028771;28;20435;-81
2021/08/24 02:40:19;;;;;;;5.78;3.40;;;12.70;99.90;;;;;;4997728;28;20893;-80
2021/08/24 02:43:04;;;;;;;5.00;2.90;;;12.70;99.90;;;;;;5028421;28;20525;-81
2021/08/24 02:45:35;;;;;;;7.45;3.10;;;12.60;99.90;;;;;;5010703;28;20392;-80
2021/08/24 02:48:05;;;;;;;6.10;3.00;;;12.60;99.90;;;;;;5028191;28;20377;-80
2021/08/24 02:50:31;;;;;;;5.07;2.63;;;12.50;99.90;;;;;;5027254;28;20381;-78
2021/08/24 02:52:57;;;;;;;5.75;2.92;;;12.50;99.90;;;;;;5030371;28;20396;-81
2021/08/24 02:55:23;;;;;;;6.00;3.30;;;12.40;99.90;;;;;;5032547;28;20398;-80
2021/08/24 02:57:49;;;;;;;5.00;3.25;;;12.40;99.90;;;;;;5032580;28;20393;-78
2021/08/24 03:00:15;;;;;;;5.20;2.97;;;12.50;99.90;;;;;;5031912;28;20369;-77
2021/08/24 03:02:41;;;;;;;5.28;3.17;;;12.50;99.90;;;;;;5031848;28;20401;-80
2021/08/24 03:05:08;;;;;;;5.05;3.08;;;12.50;99.90;;;;;;5030745;28;20727;-82
2021/08/24 03:07:36;;;;;;;6.80;3.30;;;12.30;99.90;;;;;;5032256;28;20409;-78
2021/08/24 03:10:07;;;;;;;6.10;3.37;;;12.30;99.90;;;;;;5014479;28;20891;-81
2021/08/24 03:12:39;;;;;;;6.15;3.28;;;12.30;99.90;;;;;;5013734;28;20387;-83
2021/08/24 03:15:15;;;;;;;5.13;3.05;;;12.30;99.90;;;;;;5030487;28;20796;-80
2021/08/24 03:17:44;;;;;;;6.20;3.20;;;12.20;99.90;;;;;;5031815;28;20373;-80
2021/08/24 03:20:12;;;;;;;6.93;2.95;;;12.20;99.90;;;;;;5031701;28;20390;-79
2021/08/24 03:22:39;;;;;;;6.47;3.13;;;12.30;99.90;;;;;;5031659;28;20381;-79
2021/08/24 03:25:07;;;;;;;6.47;3.00;;;12.30;99.90;;;;;;5013760;28;20451;-81
2021/08/24 03:27:36;;;;;;;5.97;3.33;;;12.20;99.90;;;;;;5031717;28;20373;-78
2021/08/24 03:30:06;;;;;;;5.75;3.55;;;12.20;99.90;;;;;;5031711;28;20390;-80
2021/08/24 03:32:32;;;;;;;5.18;3.17;;;12.20;99.90;;;;;;5031467;28;20381;-81
2021/08/24 03:34:57;;;;;;;7.60;3.88;;;12.30;99.90;;;;;;5031444;28;20440;-81
2021/08/24 03:37:23;;;;;;;7.65;3.80;;;12.20;99.90;;;;;;5031328;28;20389;-80
2021/08/24 03:39:48;;;;;;;7.00;3.27;;;12.20;99.90;;;;;;5013810;28;20389;-79
2021/08/24 03:42:14;;;;;;;6.93;3.25;;;12.10;99.90;;;;;;5031230;28;20755;-81
2021/08/24 03:44:42;;;;;;;6.35;3.50;;;12.10;99.90;;;;;;5031470;28;20391;-81
2021/08/24 03:47:08;;;;;;;7.80;3.78;;;12.10;99.90;;;;;;5013422;28;20812;-78
2021/08/24 03:49:33;;;;;;;6.50;3.63;;;12.10;99.90;;;;;;5031213;28;20435;-80
2021/08/24 03:51:59;;;;;;;7.72;4.03;;;12.10;99.90;;;;;;5031376;28;20891;-81
2021/08/24 03:54:24;;;;;;;4.93;3.30;;;12.10;99.90;;;;;;5031049;28;20685;-80
2021/08/24 03:56:50;;;;;;;6.83;3.67;;;12.10;99.90;;;;;;5031053;28;20887;-79
2021/08/24 03:59:15;;;;;;;6.37;4.13;;;12.10;99.90;;;;;;5030942;28;20384;-81
2021/08/24 04:01:41;;;;;;;6.50;3.47;;;12.00;99.90;;;;;;5030887;28;20477;-78
2021/08/24 04:04:06;;;;;;;7.55;3.60;;;12.00;99.90;;;;;;5030042;28;20377;-79
2021/08/24 04:06:32;;;;;;;5.67;3.33;;;12.10;99.90;;;;;;5031245;28;20943;-79
2021/08/24 04:08:58;;;;;;;8.25;3.85;;;12.10;99.90;;;;;;5030589;28;20728;-81
2021/08/24 04:11:23;;;;;;;6.53;3.75;;;12.00;99.90;;;;;;5030700;28;20413;-81
2021/08/24 04:13:49;;;;;;;4.80;3.20;;;12.00;99.90;;;;;;5030717;28;20393;-78
2021/08/24 04:16:14;;;;;;;5.85;3.53;;;12.00;99.90;;;;;;5031170;28;20800;-80
2021/08/24 04:18:41;;;;;;;5.93;3.50;;;12.00;99.90;;;;;;5030559;28;20377;-81
2021/08/24 04:21:13;;;;;;;5.00;3.00;;;12.10;99.90;;;;;;5030957;28;20381;-79
2021/08/24 04:23:40;;;;;;;9.82;3.58;;;12.10;99.90;;;;;;5030760;28;20464;-78
2021/08/24 04:26:06;;;;;;;5.63;3.25;;;12.10;99.90;;;;;;5030713;28;20421;-80
2021/08/24 04:28:32;;;;;;;6.17;3.07;;;12.10;99.90;;;;;;5030430;28;20452;-79
2021/08/24 04:30:58;;;;;;;5.63;3.00;;;12.10;99.90;;;;;;5030357;28;20843;-79
2021/08/24 04:33:23;;;;;;;6.50;3.00;;;12.10;99.90;;;;;;5030138;28;20886;-81
2021/08/24 04:35:53;;;;;;;4.72;2.85;;;12.10;99.90;;;;;;5030546;28;20743;-78
2021/08/24 04:38:19;;;;;;;4.43;2.80;;;12.10;99.90;;;;;;5030157;28;20385;-79
2021/08/24 04:40:45;;;;;;;4.57;2.88;;;12.20;99.90;;;;;;5030403;28;20978;-78
2021/08/24 04:43:11;;;;;;;4.50;2.60;;;12.20;99.90;;;;;;5030785;28;20468;-80
2021/08/24 04:45:36;;;;;;;5.35;2.83;;;12.20;99.90;;;;;;5030242;28;20468;-80
2021/08/24 04:48:03;;;;;;;6.37;2.77;;;12.10;99.90;;;;;;5030062;28;20503;-80
2021/08/24 04:50:28;;;;;;;3.77;2.50;;;12.10;99.90;;;;;;5030205;28;20824;-79
2021/08/24 04:52:54;;;;;;;4.63;2.30;;;12.20;99.90;;;;;;5030146;28;20385;-78
2021/08/24 04:55:20;;;;;;;4.50;2.35;;;12.30;99.90;;;;;;5026810;28;20513;-80
2021/08/24 04:57:45;;;;;;;5.27;2.50;;;12.40;99.90;;;;;;5027557;28;20882;-80
2021/08/24 05:00:11;;;;;;;5.60;2.93;;;12.40;99.90;;;;;;5029110;28;20732;-80
2021/08/24 05:02:37;;;;;;;6.07;2.60;;;12.40;99.90;;;;;;5029158;28;20378;-79
2021/08/24 05:05:04;;;;;;;3.35;2.17;;;12.40;99.90;;;;;;5029748;28;20898;-78
2021/08/24 05:07:29;;;;;;;4.53;2.40;;;12.50;99.90;;;;;;5029219;28;20378;-79
2021/08/24 05:09:55;;;;;;;4.97;2.83;;;12.60;99.90;;;;;;5028954;28;20381;-80
2021/08/24 05:12:21;;;;;;;5.13;2.20;;;12.60;99.90;;;;;;5029492;28;20385;-81
2021/08/24 05:14:46;;;;;;;4.95;2.45;;;12.70;99.90;;;;;;5029079;28;20501;-79
2021/08/24 05:17:12;;;;;;;4.07;2.17;;;12.80;99.90;;;;;;5029370;28;20822;-80
2021/08/24 05:19:38;;;;;;;4.47;2.17;;;13.00;99.90;;;;;;5028855;28;20441;-79
2021/08/24 05:22:04;;;;;;;3.57;2.47;;;13.20;99.90;;;;;;5029242;28;20468;-80
2021/08/24 05:24:29;;;;;;;5.30;2.40;;;13.20;99.90;;;;;;5029095;28;20441;-80
2021/08/24 05:26:55;;;;;;;4.97;2.50;;;13.30;99.90;;;;;;5029068;28;20381;-77
2021/08/24 05:29:21;;;;;;;4.87;1.90;;;13.20;99.90;;;;;;5029141;28;20800;-80
2021/08/24 05:31:46;;;;;;;4.43;2.20;;;13.20;99.90;;;;;;5029100;28;20717;-78
2021/08/24 05:34:12;;;;;;;4.43;2.40;;;13.30;99.90;;;;;;5027657;28;20974;-83
2021/08/24 05:36:38;;;;;;;4.00;2.50;;;13.30;99.90;;;;;;5028918;28;20480;-79
2021/08/24 05:39:04;;;;;;;4.20;2.20;;;13.30;99.90;;;;;;5028916;28;20381;-81
2021/08/24 05:41:30;;;;;;;3.42;2.20;;;13.30;99.90;;;;;;5028795;28;20794;-81
2021/08/24 05:43:56;;;;;;;4.00;2.10;;;13.50;99.90;;;;;;5028783;28;20601;-82
2021/08/24 05:46:21;;;;;;;5.87;2.50;;;13.50;99.90;;;;;;5028379;28;20822;-80
2021/08/24 05:48:47;;;;;;;5.53;2.47;;;13.50;99.90;;;;;;5027717;28;20374;-80
2021/08/24 05:51:16;;;;;;;3.77;2.20;;;13.60;99.90;;;;;;5028845;28;20390;-81
2021/08/24 05:53:42;;;;;;;3.63;2.30;;;13.70;99.90;;;;;;5007362;28;20416;-82
2021/08/24 05:56:17;;;;;;;4.28;2.38;;;13.80;99.90;;;;;;5027057;28;20384;-79
2021/08/24 05:58:43;;;;;;;3.47;2.17;;;13.80;99.90;;;;;;5006435;28;20396;-79
2021/08/24 06:01:15;;;;;;;5.50;2.50;;;14.00;99.90;;;;;;5028609;28;20390;-82
2021/08/24 06:03:41;;;;;;;4.93;1.95;;;14.10;99.90;;;;;;5028310;28;20397;-79
2021/08/24 06:06:06;;;;;;;3.87;2.10;;;14.20;99.90;;;;;;5028036;28;20384;-79
2021/08/24 06:08:32;;;;;;;3.17;1.90;;;14.30;99.90;;;;;;5028161;28;20385;-82
2021/08/24 06:10:58;;;;;;;3.37;2.10;;;14.40;99.90;;;;;;5028210;28;20377;-81
2021/08/24 06:13:23;;;;;;;3.65;2.03;;;14.40;99.90;;;;;;5027992;28;20443;-79
2021/08/24 06:15:49;;;;;;;3.70;2.10;;;14.50;99.90;;;;;;5028007;28;20377;-82
2021/08/24 06:18:14;;;;;;;4.72;2.33;;;14.60;99.90;;;;;;5028082;28;20867;-80
2021/08/24 06:20:42;;;;;;;5.07;2.37;;;14.50;99.90;;;;;;5009848;28;20721;-80
2021/08/24 06:23:07;;;;;;;3.58;2.10;;;14.70;99.90;;;;;;5028184;28;20385;-81
2021/08/24 06:25:33;;;;;;;5.83;2.27;;;14.80;99.90;;;;;;5028137;28;20867;-79
2021/08/24 06:27:58;;;;;;;4.38;2.00;;;14.80;99.90;;;;;;5028277;28;20374;-81
2021/08/24 06:30:24;;;;;;;4.20;2.20;;;15.00;99.90;;;;;;5028319;28;20373;-80
2021/08/24 06:32:53;;;;;;;5.03;2.30;;;15.10;99.90;;;;;;5028892;28;20464;-81
2021/08/24 06:35:21;;;;;;;3.30;2.35;;;15.30;99.90;;;;;;5028340;28;20405;-78
2021/08/24 06:37:47;;;;;;;3.08;2.10;;;15.40;99.90;;;;;;5028745;28;20381;-81
2021/08/24 06:40:15;;;;;;;3.80;1.95;;;15.60;99.90;;;;;;5027255;28;20435;-82
2021/08/24 06:42:47;;;;;;;3.27;1.90;;;15.90;99.90;;;;;;5026190;28;20401;-79
2021/08/24 06:45:18;;;;;;;6.00;2.30;;;16.10;99.90;;;;;;5024283;28;20377;-81
2021/08/24 06:47:44;;;;;;;3.28;2.03;;;16.30;99.90;;;;;;5010288;28;21077;-82
2021/08/24 06:50:10;;;;;;;3.33;2.00;;;16.40;99.90;;;;;;5010538;28;20380;-79
2021/08/24 06:52:35;;;;;;;3.00;2.13;;;16.50;99.90;;;;;;5025774;28;20473;-80
2021/08/24 06:55:01;;;;;;;3.40;2.05;;;16.70;99.90;;;;;;5026831;28;20559;-81
2021/08/24 06:57:27;;;;;;;4.50;1.73;;;17.00;99.90;;;;;;5008087;28;20393;-83
2021/08/24 06:59:52;;;;;;;2.90;2.10;;;17.00;99.90;;;;;;5027343;28;20763;-84
2021/08/24 07:02:18;;;;;;;5.37;2.20;;;17.30;99.90;;;;;;5028002;28;20400;-81
2021/08/24 07:04:47;;;;;;;4.20;2.22;;;17.40;99.90;;;;;;5027960;28;20381;-83
2021/08/24 07:07:14;;;;;;;2.72;2.10;;;17.40;99.90;;;;;;5010645;28;20756;-81
2021/08/24 07:09:39;;;;;;;2.72;1.90;;;17.40;99.90;;;;;;5028096;28;20895;-84
2021/08/24 07:12:05;;;;;;;2.93;2.03;;;17.40;99.90;;;;;;5027963;28;20392;-82
2021/08/24 07:14:31;;;;;;;7.93;2.25;;;17.40;99.90;;;;;;5025352;28;20435;-80
2021/08/24 07:16:56;;;;;;;6.03;2.10;;;17.50;99.90;;;;;;5027879;28;20378;-81
2021/08/24 07:19:22;;;;;;;3.50;2.03;;;17.40;99.90;;;;;;5028176;28;20373;-83
2021/08/24 07:21:47;;;;;;;3.17;2.00;;;17.30;99.90;;;;;;5024829;28;20409;-79
2021/08/24 07:24:13;;;;;;;3.30;2.00;;;17.50;99.90;;;;;;5027873;28;20385;-81
2021/08/24 07:26:39;;;;;;;3.70;2.40;;;17.70;99.90;;;;;;5028441;28;20377;-82
2021/08/24 07:29:04;;;;;;;3.00;2.30;;;17.80;99.90;;;;;;5026112;28;20389;-81
2021/08/24 07:31:33;;;;;;;3.43;2.17;;;17.60;99.90;;;;;;5025493;28;20753;-81
2021/08/24 07:33:59;;;;;;;2.80;2.00;;;17.90;99.90;;;;;;5009836;28;20405;-83
2021/08/24 07:36:24;;;;;;;2.60;2.33;;;17.90;99.90;;;;;;5028677;28;20385;-81
2021/08/24 07:38:50;;;;;;;4.20;2.50;;;17.90;99.90;;;;;;5028303;28;20728;-82
2021/08/24 07:41:15;;;;;;;4.37;2.10;;;17.80;99.90;;;;;;5032093;28;20394;-80
2021/08/24 07:43:41;;;;;;;3.75;2.38;;;17.80;99.90;;;;;;5031304;28;20460;-80
2021/08/24 07:46:07;;;;;;;4.17;2.47;;;17.80;99.90;;;;;;5030865;28;20472;-82
2021/08/24 07:48:34;;;;;;;4.17;2.70;;;17.90;99.90;;;;;;5029648;28;20381;-80
2021/08/24 07:50:59;;;;;;;3.38;2.47;;;18.00;99.90;;;;;;5012583;28;21229;-82
2021/08/24 07:53:25;;;;;;;3.70;2.50;;;18.10;99.90;;;;;;5031401;28;20861;-84
2021/08/24 07:55:51;;;;;;;4.10;2.60;;;18.30;99.90;;;;;;5032005;28;20948;-80
2021/08/24 07:58:16;;;;;;;4.25;2.45;;;18.50;99.90;;;;;;5031524;28;20395;-82
2021/08/24 08:00:42;;;;;;;4.80;2.60;;;18.40;99.90;;;;;;5031435;28;20819;-83
2021/08/24 08:03:08;;;;;;;3.08;2.03;;;18.40;99.90;;;;;;5031503;28;20393;-82
2021/08/24 08:05:33;;;;;;;3.87;2.20;;;18.30;99.90;;;;;;5031740;28;20868;-81
2021/08/24 08:08:00;;;;;;;5.15;2.53;;;18.40;99.90;;;;;;5030064;28;20424;-81
2021/08/24 08:10:25;;;;;;;2.70;2.10;;;18.40;99.90;;;;;;5031077;28;20378;-83
2021/08/24 08:12:51;;;;;;;4.60;2.45;;;18.20;99.90;;;;;;5029636;28;20390;-82
2021/08/24 08:15:17;;;;;;;3.57;2.67;;;18.30;99.90;;;;;;5030722;28;20401;-81
2021/08/24 08:17:43;;;;;;;4.28;2.30;;;18.30;99.90;;;;;;5030897;28;20457;-79
2021/08/24 08:20:10;;;;;;;4.40;2.25;;;18.50;99.90;;;;;;5030940;28;20448;-84
2021/08/24 08:22:38;;;;;;;8.10;2.70;;;18.50;99.90;;;;;;5030866;28;20485;-82
2021/08/24 08:25:05;;;;;;;4.30;2.60;;;18.60;99.90;;;;;;5030884;28;20373;-82
2021/08/24 08:27:31;;;;;;;5.25;2.40;;;18.60;99.90;;;;;;5030748;28;20389;-84
2021/08/24 08:29:57;;;;;;;4.00;2.50;;;19.00;99.90;;;;;;5031080;28;20431;-82
2021/08/24 08:32:29;;;;;;;4.18;2.75;;;19.30;99.90;;;;;;5013149;28;20393;-82
2021/08/24 08:34:55;;;;;;;3.60;2.40;;;19.20;99.90;;;;;;5012682;28;20818;-84
2021/08/24 08:37:21;;;;;;;3.67;2.25;;;19.00;99.90;;;;;;5012821;28;20376;-83
2021/08/24 08:39:47;;;;;;;3.05;2.20;;;19.10;99.90;;;;;;5030560;28;20374;-84
2021/08/24 08:42:25;;;;;;;3.20;1.93;;;18.90;99.90;;;;;;5030302;28;20875;-82
2021/08/24 08:45:07;;;;;;;3.33;2.22;;;18.90;99.90;;;;;;5031018;28;20386;-83
2021/08/24 08:47:45;;;;;;;4.82;2.25;;;18.80;99.90;;;;;;5029398;28;20393;-83
2021/08/24 08:50:36;;;;;;;23.38;3.75;;;19.00;99.90;;;;;;5010809;28;20377;-81
2021/08/24 08:53:29;;;;;;;4.07;2.42;;;19.30;99.90;;;;;;5010762;28;20396;-82
2021/08/24 08:56:17;;;;;;;4.20;2.42;;;19.40;99.90;;;;;;5012443;28;20413;-80
2021/08/24 08:59:06;;;;;;;3.30;2.28;;;19.30;99.90;;;;;;5030236;28;20465;-81
2021/08/24 09:01:44;;;;;;;3.70;2.47;;;19.10;99.90;;;;;;5012197;28;20393;-84
2021/08/24 09:04:26;;;;;;;3.03;2.10;;;19.00;99.90;;;;;;5028387;28;20743;-82
2021/08/24 09:06:58;;;;;;;3.75;2.40;;;19.20;99.90;;;;;;5022076;28;20399;-85
2021/08/24 09:09:25;;;;;;;5.17;2.27;;;19.00;99.90;;;;;;5015991;28;20915;-80
2021/08/24 09:11:52;;;;;;;2.90;2.20;;;19.10;99.90;;;;;;5009070;28;20469;-86
2021/08/24 09:14:37;;;;;;;5.00;2.20;;;19.40;99.90;;;;;;5009988;28;20403;-81
2021/08/24 09:17:29;;;;;;;3.55;2.50;;;19.30;99.90;;;;;;5010082;28;20380;-83
2021/08/24 09:20:16;;;;;;;4.70;2.50;;;19.20;99.90;;;;;;5008177;28;20399;-82
2021/08/24 09:22:43;;;;;;;3.50;2.50;;;19.00;99.90;;;;;;5009147;28;20426;-85
2021/08/24 09:25:19;;;;;;;3.03;2.03;;;18.90;99.90;;;;;;5010349;28;20397;-84
2021/08/24 09:27:48;;;;;;;13.13;2.97;;;18.90;99.90;;;;;;5010054;28;20462;-81
2021/08/24 09:30:15;;;;;;;11.65;2.90;;;19.20;99.90;;;;;;5009529;28;20394;-81
2021/08/24 09:32:41;;;;;;;6.25;1.98;;;19.50;99.90;;;;;;5009960;28;20375;-85
2021/08/24 09:35:27;;;;;;;6.67;2.30;;;19.90;99.90;;;;;;5009643;28;20757;-84
2021/08/24 09:37:54;;;;;;;4.85;2.58;;;20.10;99.90;;;;;;4992336;28;20406;-81
2021/08/24 09:40:59;;;;;;;3.90;2.20;;;20.60;99.90;;;;;;5009291;28;20707;-85
2021/08/24 09:43:37;;;;;;;13.73;2.90;;;20.60;99.90;;;;;;4929842;29;20892;-86
2021/08/24 09:46:17;;;;;;;5.90;2.37;;;21.10;99.90;;;;;;5001699;28;20474;-80
2021/08/24 09:48:58;;;;;;;4.05;2.20;;;21.60;99.90;;;;;;5009354;28;20386;-84
2021/08/24 09:51:39;;;;;;;2.63;2.17;;;21.90;99.90;;;;;;5009635;28;20390;-82
2021/08/24 09:54:27;;;;;;;16.10;4.10;;;21.90;99.90;;;;;;5009572;28;20452;-83
2021/08/24 09:57:00;;;;;;;4.18;2.40;;;21.40;99.90;;;;;;5010062;28;20462;-82
2021/08/24 09:59:31;;;;;;;3.60;2.40;;;20.70;99.90;;;;;;5007998;28;20410;-82
2021/08/24 10:01:57;;;;;;;6.32;2.58;;;20.50;99.90;;;;;;4991138;28;20403;-81
2021/08/24 10:04:23;;;;;;;4.95;2.58;;;20.40;99.90;;;;;;5009029;28;20449;-82
2021/08/24 10:06:54;;;;;;;34.67;5.15;;;20.20;99.90;;;;;;5009562;28;20813;-82
2021/08/24 10:09:36;;;;;;;4.75;2.80;;;20.00;99.90;;;;;;5009219;28;20381;-83
2021/08/24 10:12:28;;;;;;;4.80;2.53;;;19.70;99.90;;;;;;5009524;28;20391;-80
2021/08/24 10:14:56;;;;;;;2.88;2.20;;;19.50;99.90;;;;;;4991661;28;20439;-82
2021/08/24 10:17:34;;;;;;;3.17;2.60;;;19.40;99.90;;;;;;5009270;28;20390;-82
2021/08/24 10:20:03;;;;;;;5.05;2.20;;;19.50;99.90;;;;;;5009134;28;20415;-84
2021/08/24 10:22:36;;;;;;;3.70;2.55;;;19.50;99.90;;;;;;5009430;28;20441;-81
2021/08/24 10:25:30;;;;;;;3.50;2.40;;;19.60;99.90;;;;;;5009308;28;20409;-82
2021/08/24 10:28:05;;;;;;;4.40;2.40;;;19.80;99.90;;;;;;4983805;28;20375;-82
2021/08/24 10:30:40;;;;;;;4.38;2.50;;;19.90;99.90;;;;;;4991255;28;20423;-86
2021/08/24 10:33:06;;;;;;;16.10;3.30;;;20.00;99.90;;;;;;5009033;28;20394;-83
2021/08/24 10:35:37;;;;;;;4.72;2.58;;;20.20;99.90;;;;;;5008807;28;20403;-84
2021/08/24 10:38:03;;;;;;;3.65;2.47;;;20.30;99.90;;;;;;4991080;28;20761;-84
2021/08/24 10:40:43;;;;;;;3.80;2.50;;;20.40;99.90;;;;;;5007641;28;20382;-85
2021/08/24 10:43:15;;;;;;;7.53;2.72;;;20.50;99.90;;;;;;5008711;28;20382;-84
2021/08/24 10:45:44;;;;;;;4.53;2.20;;;20.50;99.90;;;;;;5017439;28;20381;-82
2021/08/24 10:48:18;;;;;;;3.97;2.58;;;20.80;99.90;;;;;;5028361;28;20384;-86
2021/08/24 10:51:17;;;;;;;3.10;2.30;;;20.90;99.90;;;;;;5028294;28;20377;-80
2021/08/24 10:54:20;;;;;;;4.20;2.30;;;20.80;99.90;;;;;;5028208;28;20520;-82
2021/08/24 10:57:07;;;;;;;3.30;2.20;;;20.90;99.90;;;;;;5008092;28;20743;-81
2021/08/24 10:59:54;;;;;;;4.05;2.35;;;20.90;99.90;;;;;;5025398;28;20388;-84
2021/08/24 11:02:58;;;;;;;3.30;2.40;;;20.80;99.90;;;;;;5010394;28;20429;-86
2021/08/24 11:05:51;;;;;;;3.53;2.28;;;20.80;99.90;;;;;;4931497;29;20496;-80
2021/08/24 11:08:36;;;;;;;3.67;2.35;;;20.80;99.90;;;;;;5008117;28;20438;-79
2021/08/24 11:11:29;;;;;;;10.85;3.08;;;20.80;99.00;;;;;;5027854;28;20381;-79
2021/08/24 11:14:19;;;;;;;3.47;2.20;;;21.00;99.90;;;;;;5029529;28;20405;-80
2021/08/24 11:16:47;;;;;;;4.35;2.65;;;21.20;98.60;;;;;;5031282;28;20391;-81
2021/08/24 11:19:36;;;;;;;5.28;2.97;;;21.10;99.90;;;;;;5031224;28;20452;-82
2021/08/24 11:22:16;;;;;;;3.70;2.83;;;21.10;99.10;;;;;;5031418;28;20488;-80
2021/08/24 11:24:48;;;;;;;3.47;2.47;;;21.00;99.20;;;;;;5031023;28;20381;-84
2021/08/24 11:27:44;;;;;;;4.07;2.90;;;21.00;99.90;;;;;;5031569;28;20485;-82
2021/08/24 11:30:52;;;;;;;7.88;3.00;;;20.70;98.20;;;;;;5031109;28;20472;-80
2021/08/24 11:33:44;;;;;;;5.13;3.10;;;20.60;98.20;;;;;;5012991;28;20428;-79
2021/08/24 11:36:18;;;;;;;5.85;4.22;;;20.70;97.80;;;;;;5031757;28;20389;-82
2021/08/24 11:39:14;;;;;;;5.18;3.80;;;20.60;97.00;;;;;;5031543;28;20385;-82
2021/08/24 11:41:42;;;;;;;5.25;3.58;;;20.40;97.80;;;;;;5009617;28;20420;-82
2021/08/24 11:44:17;;;;;;;5.07;3.83;;;20.50;98.90;;;;;;5031236;28;20381;-82
2021/08/24 11:46:57;;;;;;;7.00;4.45;;;20.60;98.20;;;;;;5031118;28;20381;-81
2021/08/24 11:49:37;;;;;;;11.20;4.80;;;20.70;97.20;;;;;;5030563;28;20388;-80
2021/08/24 11:52:25;;;;;;;4.75;4.03;;;20.90;97.70;;;;;;5031240;28;20373;-83
2021/08/24 11:54:56;;;;;;;8.50;4.65;;;20.90;97.30;;;;;;5013630;28;20405;-80
2021/08/24 11:57:36;;;;;;;6.40;4.43;;;20.80;97.60;;;;;;5031072;28;20381;-84
2021/08/24 12:00:05;;;;;;;6.50;4.20;;;20.90;97.40;;;;;;5012669;28;20421;-84
2021/08/24 12:02:37;;;;;;;9.73;4.55;;;21.10;99.90;;;;;;5031254;28;20398;-82
2021/08/24 12:05:04;;;;;;;5.38;4.00;;;21.10;97.30;;;;;;5030841;28;20397;-79
2021/08/24 12:07:34;;;;;;;5.32;4.57;;;21.00;96.20;;;;;;5031401;28;20888;-81
2021/08/24 12:10:07;;;;;;;5.40;4.57;;;21.00;96.10;;;;;;5031085;28;20384;-80
2021/08/24 12:12:33;;;;;;;8.80;4.10;;;20.90;97.50;;;;;;5031359;28;20856;-81
2021/08/24 12:15:05;;;;;;;7.07;4.10;;;21.10;97.10;;;;;;5031078;28;20401;-82
2021/08/24 12:17:36;;;;;;;110.15;14.23;;;21.20;96.30;;;;;;5030826;28;20402;-81
2021/08/24 12:20:09;;;;;;;9.02;4.72;;;21.60;97.80;;;;;;5013435;28;20396;-81
2021/08/24 12:22:39;;;;;;;5.85;4.22;;;21.80;97.30;;;;;;5028271;28;20444;-81
2021/08/24 12:25:13;;;;;;;13.50;5.00;;;21.90;96.60;;;;;;5030342;28;20386;-83
2021/08/24 12:27:44;;;;;;;5.70;4.40;;;21.80;96.20;;;;;;5013046;28;20386;-82
2021/08/24 12:30:21;;;;;;;6.47;4.57;;;21.60;96.10;;;;;;5030548;28;20401;-81
2021/08/24 12:32:50;;;;;;;6.53;4.40;;;21.60;95.80;;;;;;5031087;28;20405;-80
2021/08/24 12:35:40;;;;;;;5.55;4.20;;;21.70;96.00;;;;;;5012523;28;20864;-83
2021/08/24 12:38:07;;;;;;;5.57;4.20;;;21.60;96.30;;;;;;5029380;28;20915;-87
2021/08/24 12:40:52;;;;;;;5.95;4.20;;;21.40;96.60;;;;;;5012801;28;20435;-81
2021/08/24 12:43:44;;;;;;;32.97;7.43;;;21.20;97.50;;;;;;5030485;28;20435;-85
2021/08/24 12:46:19;;;;;;;5.22;3.90;;;21.30;97.00;;;;;;5012875;28;20393;-81
2021/08/24 12:49:23;;;;;;;7.63;4.00;;;21.40;98.20;;;;;;5012422;28;20429;-82
2021/08/24 12:52:32;;;;;;;5.93;4.20;;;21.40;95.40;;;;;;5030483;28;20382;-82
2021/08/24 12:55:12;;;;;;;20.87;5.13;;;21.40;95.30;;;;;;5012704;28;20488;-84
2021/08/24 12:57:42;;;;;;;5.65;3.80;;;21.50;95.70;;;;;;5012453;28;20382;-80
2021/08/24 13:00:19;;;;;;;6.50;3.95;;;21.80;96.00;;;;;;5030167;28;20503;-80
2021/08/24 13:03:16;;;;;;;4.63;3.55;;;22.00;95.90;;;;;;5029675;28;20393;-83
2021/08/24 13:05:42;;;;;;;5.30;4.05;;;22.10;94.50;;;;;;5030380;28;20385;-82
2021/08/24 13:08:22;;;;;;;6.88;3.78;;;22.10;95.30;;;;;;5030312;28;20389;-81
2021/08/24 13:10:53;;;;;;;6.63;4.03;;;22.10;95.60;;;;;;5030633;28;20381;-80
2021/08/24 13:13:28;;;;;;;9.20;4.40;;;22.10;95.90;;;;;;5030133;28;20384;-83